createdAt,value
2018-03-22T00:01:43.340Z,61.50
2018-03-22T00:04:16.630Z,61.60
2018-03-22T00:06:49.887Z,61.27
2018-03-22T00:09:23.195Z,61.32
2018-03-22T00:11:57.214Z,61.75
2018-03-22T00:14:30.507Z,61.72
2018-03-22T01:48:06.731Z,65.03
2018-03-22T01:50:40.002Z,65.21
2018-03-22T01:53:14.983Z,64.98
2018-03-22T01:55:48.266Z,64.94
2018-03-22T01:58:21.526Z,65.11
2018-03-22T03:32:00.730Z,64.11
2018-03-22T03:34:34.002Z,64.20
2018-03-22T03:37:07.257Z,64.21
2018-03-22T03:39:40.537Z,64.35
2018-03-22T03:42:13.793Z,64.42
2018-03-22T03:44:47.074Z,64.48
2018-03-22T04:45:56.806Z,62.70
2018-03-22T04:48:30.067Z,62.78
2018-03-22T04:51:03.337Z,62.59
2018-03-22T04:53:36.589Z,62.77
2018-03-22T04:56:09.878Z,62.79
2018-03-22T04:58:43.161Z,62.78
2018-03-22T05:30:53.185Z,63.73
2018-03-22T05:33:27.250Z,64.18
2018-03-22T05:36:00.496Z,63.89
2018-03-22T05:38:33.794Z,63.83
2018-03-22T05:41:07.053Z,64.05
2018-03-22T05:43:40.335Z,64.15
2018-03-22T05:46:13.614Z,64.06
2018-03-22T05:48:46.868Z,64.15
2018-03-22T05:51:20.159Z,64.42
2018-03-22T05:53:53.434Z,64.37
2018-03-22T05:56:26.686Z,64.51
2018-03-22T05:58:59.974Z,64.60
2018-03-22T06:01:33.263Z,64.74
2018-03-22T06:04:06.522Z,64.79
2018-03-22T06:06:40.562Z,64.88
2018-03-22T06:09:13.811Z,64.83
2018-03-22T06:11:47.101Z,64.66
2018-03-22T06:14:20.374Z,64.81
2018-03-22T06:16:53.654Z,64.78
2018-03-22T06:19:26.912Z,64.77
2018-03-22T06:22:00.202Z,64.46
2018-03-22T06:24:33.457Z,64.39
2018-03-22T06:27:06.733Z,63.92
2018-03-22T06:29:39.991Z,63.85
2018-03-22T06:32:13.261Z,64.02
2018-03-22T06:34:47.324Z,64.25
2018-03-22T06:37:20.580Z,63.93
2018-03-22T06:39:54.618Z,63.79
2018-03-22T06:42:27.870Z,63.94
2018-03-22T06:45:01.162Z,63.67
2018-03-22T06:47:34.425Z,63.48
2018-03-22T06:50:07.806Z,63.38
2018-03-22T06:52:41.070Z,63.52
2018-03-22T06:55:14.375Z,63.18
2018-03-22T06:57:47.638Z,63.00
2018-03-22T07:00:20.932Z,63.03
2018-03-22T07:02:54.189Z,63.22
2018-03-22T07:05:27.469Z,63.25
2018-03-22T07:08:00.743Z,63.14
2018-03-22T07:10:34.790Z,63.11
2018-03-22T07:13:08.045Z,62.78
2018-03-22T07:15:41.345Z,62.05
2018-03-22T07:18:14.610Z,61.70
2018-03-22T07:20:47.912Z,61.67
2018-03-22T07:23:21.935Z,61.24
2018-03-22T07:25:56.030Z,61.12
2018-03-22T07:28:29.269Z,60.75
2018-03-22T08:03:29.889Z,57.09
2018-03-22T08:06:03.165Z,56.21
2018-03-22T08:08:36.415Z,56.04
2018-03-22T08:11:09.694Z,55.69
2018-03-22T08:13:42.967Z,56.01
2018-03-22T09:01:49.789Z,54.22
2018-03-22T09:04:23.051Z,54.46
2018-03-22T09:06:56.335Z,54.63
2018-03-22T09:09:29.590Z,52.69
2018-03-22T09:12:02.933Z,52.54
2018-03-22T09:14:36.109Z,52.97
2018-03-22T10:02:41.061Z,48.07
2018-03-22T10:05:14.319Z,48.48
2018-03-22T10:07:47.590Z,46.97
2018-03-22T10:10:20.843Z,46.34
2018-03-22T10:12:54.121Z,46.90
2018-03-22T11:04:08.266Z,46.36
2018-03-22T11:06:41.526Z,44.06
2018-03-22T11:09:14.779Z,44.39
2018-03-22T11:11:48.065Z,43.57
2018-03-22T11:14:21.318Z,43.92
2018-03-22T12:02:28.251Z,41.39
2018-03-22T12:05:01.502Z,40.77
2018-03-22T12:07:34.770Z,40.66
2018-03-22T12:10:08.025Z,38.46
2018-03-22T12:12:41.291Z,37.07
2018-03-22T13:00:53.689Z,34.71
2018-03-22T13:03:26.942Z,34.45
2018-03-22T13:06:00.218Z,35.19
2018-03-22T13:08:34.229Z,35.14
2018-03-22T13:11:08.273Z,35.09
2018-03-22T13:13:41.524Z,35.25
2018-03-22T14:01:47.843Z,32.50
2018-03-22T14:04:21.102Z,32.71
2018-03-22T14:06:54.425Z,33.20
2018-03-22T14:09:27.705Z,33.90
2018-03-22T14:12:00.952Z,35.14
2018-03-22T14:14:34.223Z,34.92
2018-03-22T15:02:40.554Z,36.60
2018-03-22T15:05:14.559Z,36.62
2018-03-22T15:07:48.593Z,36.65
2018-03-22T15:10:21.944Z,37.15
2018-03-22T15:12:55.879Z,37.30
2018-03-22T15:48:01.019Z,40.31
2018-03-22T15:50:34.254Z,41.09
2018-03-22T15:53:07.530Z,40.71
2018-03-22T15:55:41.543Z,41.79
2018-03-22T15:58:14.813Z,41.81
2018-03-22T16:33:19.310Z,58.24
2018-03-22T16:35:52.822Z,58.32
2018-03-22T16:38:26.088Z,57.04
2018-03-22T16:40:59.401Z,57.55
2018-03-22T16:43:32.654Z,58.37
2018-03-22T16:46:05.926Z,58.38
2018-03-22T16:48:39.182Z,59.49
2018-03-22T16:51:12.453Z,60.03
2018-03-22T16:53:45.690Z,61.96
2018-03-22T16:56:18.958Z,62.67
2018-03-22T16:58:52.209Z,63.27
2018-03-22T17:01:25.485Z,66.24
2018-03-22T17:03:58.730Z,66.95
2018-03-22T17:06:32.006Z,68.40
2018-03-22T17:09:05.287Z,67.93
2018-03-22T17:11:38.604Z,69.76
2018-03-22T17:14:11.849Z,72.00
2018-03-22T17:16:45.110Z,73.25
2018-03-22T17:19:18.388Z,73.67
2018-03-22T17:21:51.631Z,73.09
2018-03-22T17:24:24.899Z,74.41
2018-03-22T17:26:58.156Z,73.14
2018-03-22T17:29:31.435Z,73.70
2018-03-22T17:32:04.730Z,73.45
2018-03-22T17:34:38.013Z,72.48
2018-03-22T17:37:11.258Z,72.25
2018-03-22T17:39:44.531Z,71.77
2018-03-22T17:42:17.823Z,72.16
2018-03-22T17:44:51.861Z,72.47
2018-03-22T17:47:25.161Z,72.04
2018-03-22T17:49:58.444Z,71.78
2018-03-22T17:52:31.686Z,71.58
2018-03-22T17:55:04.940Z,71.68
2018-03-22T17:57:38.266Z,71.57
2018-03-22T18:00:11.463Z,71.64
2018-03-22T18:02:45.001Z,71.39
2018-03-22T18:05:18.409Z,71.84
2018-03-22T18:07:51.713Z,72.03
2018-03-22T18:10:24.960Z,72.66
2018-03-22T18:12:58.234Z,73.21
2018-03-22T18:15:31.513Z,72.92
2018-03-22T18:18:04.772Z,72.14
2018-03-22T18:20:38.826Z,72.39
2018-03-22T18:23:12.094Z,72.52
2018-03-22T18:25:45.370Z,72.16
2018-03-22T18:28:18.610Z,71.57
2018-03-22T18:30:51.898Z,71.74
2018-03-22T18:33:25.144Z,71.39
2018-03-22T18:35:59.175Z,71.42
2018-03-22T18:38:32.433Z,71.28
2018-03-22T18:41:05.730Z,71.23
2018-03-22T18:43:38.974Z,71.14
2018-03-22T18:46:12.285Z,70.67
2018-03-22T18:48:45.544Z,70.83
2018-03-22T18:51:19.578Z,71.29
2018-03-22T18:53:52.838Z,71.08
2018-03-22T18:56:26.887Z,71.45
2018-03-22T18:59:00.138Z,71.46
2018-03-22T19:01:34.317Z,71.41
2018-03-22T19:04:07.891Z,71.02
2018-03-22T19:06:41.375Z,71.19
2018-03-22T19:09:14.675Z,70.72
2018-03-22T19:11:48.056Z,70.45
2018-03-22T19:14:21.486Z,70.29
2018-03-22T19:16:54.890Z,70.29
2018-03-22T19:19:28.344Z,70.22
2018-03-22T19:22:01.732Z,70.26
2018-03-22T19:24:35.093Z,70.22
2018-03-22T19:27:08.479Z,70.19
2018-03-22T19:29:41.875Z,70.21
2018-03-22T19:32:15.255Z,70.24
2018-03-22T19:34:48.771Z,70.34
2018-03-22T19:37:22.192Z,70.34
2018-03-22T19:39:55.561Z,70.61
2018-03-22T19:42:29.627Z,70.79
2018-03-22T19:45:03.661Z,71.30
2018-03-22T19:47:36.949Z,71.64
2018-03-22T19:50:10.194Z,71.68
2018-03-22T19:52:43.468Z,71.54
2018-03-22T19:55:16.719Z,71.42
2018-03-22T19:57:50.778Z,71.32
2018-03-22T20:00:24.026Z,71.33
2018-03-22T20:02:57.446Z,71.47
2018-03-22T20:05:30.821Z,71.43
2018-03-22T20:08:04.992Z,71.48
2018-03-22T20:10:38.390Z,71.45
2018-03-22T20:13:11.676Z,71.50
2018-03-22T20:15:44.941Z,71.36
2018-03-22T20:18:18.220Z,71.29
2018-03-22T20:20:51.498Z,71.33
2018-03-22T20:23:25.520Z,71.34
2018-03-22T20:25:59.564Z,71.23
2018-03-22T20:28:32.821Z,70.99
2018-03-22T20:31:06.858Z,70.95
2018-03-22T20:33:40.136Z,70.90
2018-03-22T20:36:14.152Z,70.89
2018-03-22T20:38:47.425Z,70.72
2018-03-22T20:41:21.444Z,70.49
2018-03-22T20:43:55.499Z,70.42
2018-03-22T20:46:28.750Z,70.40
2018-03-22T20:49:02.034Z,70.30
2018-03-22T20:51:36.061Z,70.24
2018-03-22T20:54:10.103Z,70.20
2018-03-22T20:56:43.380Z,70.19
2018-03-22T20:59:16.671Z,70.13
2018-03-22T21:01:49.922Z,69.93
2018-03-22T21:04:23.213Z,69.85
2018-03-22T21:06:56.484Z,69.66
2018-03-22T21:09:29.772Z,69.91
2018-03-22T21:12:03.024Z,69.91
2018-03-22T21:14:37.092Z,69.96
2018-03-22T21:17:10.344Z,69.73
2018-03-22T21:19:43.632Z,70.05
2018-03-22T21:22:16.882Z,70.10
2018-03-22T21:24:50.157Z,69.95
2018-03-22T21:27:23.430Z,70.39
2018-03-22T21:29:56.686Z,70.68
2018-03-22T21:32:30.737Z,70.65
2018-03-22T21:35:04.055Z,70.77
2018-03-22T21:37:37.249Z,71.18
2018-03-22T21:40:10.534Z,71.55
2018-03-22T21:42:43.822Z,71.93
2018-03-22T21:45:17.088Z,71.96
2018-03-22T21:47:50.329Z,72.04
2018-03-22T21:50:23.600Z,72.16
2018-03-22T21:52:56.849Z,72.46
2018-03-22T21:55:30.900Z,73.04
2018-03-22T21:58:04.161Z,73.33
2018-03-22T22:00:37.430Z,73.88
2018-03-22T22:03:10.690Z,74.10
2018-03-22T22:05:43.967Z,74.26
2018-03-22T22:08:17.213Z,74.71
2018-03-22T22:10:50.491Z,75.33
2018-03-22T22:13:23.742Z,75.31
2018-03-22T22:15:57.033Z,75.62
2018-03-22T22:18:30.285Z,75.80
2018-03-22T22:21:03.590Z,75.53
2018-03-22T22:23:36.841Z,75.61
2018-03-22T22:26:10.122Z,75.57
2018-03-22T22:28:43.401Z,75.63
2018-03-22T22:31:16.657Z,75.43
2018-03-22T22:33:49.931Z,75.26
2018-03-22T22:36:23.189Z,75.24
2018-03-22T22:38:56.460Z,75.07
2018-03-22T22:41:29.731Z,75.07
2018-03-22T22:44:03.021Z,74.95
2018-03-22T22:46:36.279Z,74.98
2018-03-22T22:49:09.558Z,75.19
2018-03-22T22:51:42.806Z,75.21
2018-03-22T22:54:16.082Z,74.99
2018-03-22T22:56:49.341Z,74.70
2018-03-22T22:59:22.622Z,74.94
2018-03-22T23:01:55.870Z,74.88
2018-03-22T23:04:29.173Z,74.73
2018-03-22T23:07:02.421Z,74.66
2018-03-22T23:09:35.723Z,74.66
2018-03-22T23:12:08.969Z,74.91
2018-03-22T23:14:42.242Z,74.65
2018-03-22T23:17:15.502Z,74.57
2018-03-22T23:19:48.776Z,74.48
2018-03-22T23:22:22.049Z,74.28
2018-03-22T23:24:55.344Z,74.47
2018-03-22T23:27:28.617Z,74.28
2018-03-22T23:30:01.897Z,74.46
2018-03-22T23:32:35.155Z,74.54
2018-03-22T23:35:08.434Z,74.75
2018-03-22T23:37:41.694Z,74.91
2018-03-22T23:40:14.994Z,75.13
2018-03-22T23:42:48.261Z,75.25
2018-03-22T23:45:22.292Z,75.83
2018-03-22T23:47:55.574Z,75.98
2018-03-22T23:50:28.817Z,76.49
2018-03-22T23:53:02.089Z,76.64
2018-03-22T23:55:35.337Z,76.70
2018-03-22T23:58:08.606Z,77.06
